createdAt,value
2023-05-09T00:01:51.501Z,16.19
2023-05-09T00:04:24.923Z,16.22
2023-05-09T00:06:57.759Z,16.19
2023-05-09T00:09:30.692Z,16.27
2023-05-09T00:12:04.088Z,16.17
2023-05-09T00:14:39.105Z,16.10
2023-05-09T00:17:15.604Z,16.11
2023-05-09T00:19:48.644Z,16.03
2023-05-09T00:22:22.482Z,15.94
2023-05-09T00:24:55.500Z,15.96
2023-05-09T00:27:30.469Z,15.95
2023-05-09T00:30:06.063Z,15.93
2023-05-09T00:32:40.155Z,15.68
2023-05-09T00:35:13.319Z,15.64
2023-05-09T00:37:46.456Z,15.58
2023-05-09T00:40:19.397Z,15.55
2023-05-09T00:42:52.353Z,15.47
2023-05-09T00:45:26.800Z,15.56
2023-05-09T00:47:59.719Z,15.62
2023-05-09T00:50:32.833Z,15.48
2023-05-09T00:53:06.226Z,15.57
2023-05-09T00:55:39.123Z,15.57
2023-05-09T00:58:12.390Z,15.48
2023-05-09T01:00:49.603Z,15.49
2023-05-09T01:03:23.127Z,15.34
2023-05-09T01:06:01.514Z,15.39
2023-05-09T01:08:54.027Z,15.38
2023-05-09T01:11:33.138Z,15.43
2023-05-09T01:14:17.557Z,15.49
2023-05-09T01:17:01.835Z,15.54
2023-05-09T01:19:58.266Z,15.44
2023-05-09T01:22:35.854Z,15.45
2023-05-09T01:25:35.932Z,15.50
2023-05-09T01:28:15.323Z,15.60
2023-05-09T01:30:52.714Z,15.63
2023-05-09T01:33:27.892Z,15.67
2023-05-09T01:36:05.344Z,15.65
2023-05-09T01:38:39.589Z,15.65
2023-05-09T01:41:16.633Z,15.60
2023-05-09T01:43:50.589Z,15.48
2023-05-09T01:46:26.740Z,15.42
2023-05-09T01:49:01.415Z,15.29
2023-05-09T01:51:36.166Z,15.31
2023-05-09T01:54:08.922Z,15.32
2023-05-09T01:56:44.114Z,15.28
2023-05-09T01:59:17.833Z,15.11
2023-05-09T02:01:53.012Z,15.26
2023-05-09T02:04:27.006Z,15.29
2023-05-09T02:07:02.029Z,15.29
2023-05-09T02:09:34.880Z,15.23
2023-05-09T02:12:08.349Z,15.13
2023-05-09T02:14:41.158Z,15.16
2023-05-09T02:17:16.983Z,15.18
2023-05-09T02:19:49.862Z,15.15
2023-05-09T02:22:23.025Z,15.11
2023-05-09T02:24:56.258Z,15.09
2023-05-09T02:27:29.303Z,15.04
2023-05-09T02:30:07.363Z,15.04
2023-05-09T02:32:44.504Z,15.02
2023-05-09T02:35:19.355Z,15.13
2023-05-09T02:37:53.412Z,15.15
2023-05-09T02:40:28.076Z,15.18
2023-05-09T02:43:00.733Z,15.15
2023-05-09T02:45:33.911Z,15.12
2023-05-09T02:48:10.113Z,15.08
2023-05-09T02:50:43.381Z,15.04
2023-05-09T02:53:16.368Z,15.05
2023-05-09T02:55:49.172Z,15.08
2023-05-09T02:58:22.492Z,15.07
2023-05-09T03:00:55.823Z,15.03
2023-05-09T03:03:30.776Z,15.02
2023-05-09T03:06:03.829Z,15.10
2023-05-09T03:08:36.661Z,15.09
2023-05-09T03:11:09.764Z,15.01
2023-05-09T03:13:42.961Z,14.98
2023-05-09T03:16:18.785Z,15.03
2023-05-09T03:18:53.146Z,15.05
2023-05-09T03:21:26.275Z,14.97
2023-05-09T03:23:59.381Z,15.02
2023-05-09T03:26:32.238Z,14.95
2023-05-09T03:29:05.603Z,14.86
2023-05-09T03:31:38.508Z,14.92
2023-05-09T03:34:15.210Z,14.94
2023-05-09T03:36:49.474Z,14.87
2023-05-09T03:39:22.317Z,14.88
2023-05-09T03:42:00.194Z,14.88
2023-05-09T03:44:33.513Z,14.83
2023-05-09T03:47:06.693Z,14.86
2023-05-09T03:49:46.235Z,14.87
2023-05-09T03:52:21.175Z,14.95
2023-05-09T03:54:54.750Z,14.95
2023-05-09T03:57:27.840Z,14.98
2023-05-09T04:00:03.451Z,14.98
2023-05-09T04:02:48.496Z,15.04
2023-05-09T04:05:33.470Z,15.04
2023-05-09T04:08:06.808Z,14.98
2023-05-09T04:10:39.959Z,15.02
2023-05-09T04:13:12.942Z,15.04
2023-05-09T04:15:46.299Z,15.00
2023-05-09T04:18:19.702Z,14.98
2023-05-09T04:20:54.055Z,15.03
2023-05-09T04:23:27.425Z,15.07
2023-05-09T04:26:03.633Z,15.04
2023-05-09T04:28:36.665Z,15.11
2023-05-09T04:31:09.527Z,15.12
2023-05-09T04:33:42.535Z,15.13
2023-05-09T04:36:17.061Z,15.17
2023-05-09T04:38:50.484Z,15.18
2023-05-09T04:41:28.647Z,15.18
2023-05-09T04:44:01.913Z,15.20
2023-05-09T04:46:34.808Z,15.24
2023-05-09T04:49:08.829Z,15.28
2023-05-09T04:51:43.072Z,15.30
2023-05-09T04:54:15.937Z,15.33
2023-05-09T04:56:50.623Z,15.31
2023-05-09T04:59:24.015Z,15.31
2023-05-09T05:01:56.877Z,15.33
2023-05-09T05:04:29.900Z,15.34
2023-05-09T05:07:05.119Z,15.43
2023-05-09T05:09:38.539Z,15.45
2023-05-09T05:12:11.548Z,15.40
2023-05-09T05:14:46.001Z,15.39
2023-05-09T05:17:24.667Z,15.40
2023-05-09T05:19:58.640Z,15.48
2023-05-09T05:22:35.740Z,15.48
2023-05-09T05:25:09.654Z,15.51
2023-05-09T05:27:43.848Z,15.52
2023-05-09T05:30:18.209Z,15.61
2023-05-09T05:32:51.593Z,15.63
2023-05-09T05:35:28.174Z,15.70
2023-05-09T05:38:03.553Z,15.70
2023-05-09T05:40:36.641Z,15.74
2023-05-09T05:43:11.813Z,15.74
2023-05-09T05:45:45.361Z,15.79
2023-05-09T05:48:22.547Z,15.86
2023-05-09T05:50:55.586Z,15.83
2023-05-09T05:53:33.348Z,15.88
2023-05-09T05:56:06.654Z,15.94
2023-05-09T05:58:39.555Z,15.99
2023-05-09T06:01:13.824Z,15.99
2023-05-09T06:03:46.759Z,16.04
2023-05-09T06:06:19.875Z,16.00
2023-05-09T06:08:55.380Z,16.07
2023-05-09T06:11:27.970Z,15.99
2023-05-09T06:14:00.769Z,16.04
2023-05-09T06:16:33.844Z,16.09
2023-05-09T06:19:06.663Z,15.99
2023-05-09T06:21:39.467Z,15.99
2023-05-09T06:24:20.161Z,16.04
2023-05-09T06:27:00.743Z,16.10
2023-05-09T06:29:33.617Z,16.11
2023-05-09T06:32:06.457Z,16.16
2023-05-09T06:34:39.296Z,16.27
2023-05-09T06:37:12.680Z,16.34
2023-05-09T06:39:46.988Z,16.32
2023-05-09T06:42:19.790Z,16.41
2023-05-09T06:44:52.588Z,16.54
2023-05-09T06:47:25.588Z,16.63
2023-05-09T06:49:58.348Z,16.70
2023-05-09T06:52:41.350Z,16.82
2023-05-09T06:55:14.297Z,16.97
2023-05-09T06:57:48.000Z,17.09
2023-05-09T07:00:23.250Z,17.12
2023-05-09T07:02:56.252Z,17.14
2023-05-09T07:05:29.259Z,17.14
2023-05-09T07:08:04.023Z,17.07
2023-05-09T07:10:36.782Z,17.16
2023-05-09T07:13:09.632Z,17.08
2023-05-09T07:15:43.298Z,16.98
2023-05-09T07:18:16.333Z,17.00
2023-05-09T07:20:49.217Z,17.02
2023-05-09T07:23:23.339Z,16.98
2023-05-09T07:26:00.009Z,17.20
2023-05-09T07:28:32.844Z,17.28
2023-05-09T07:31:06.414Z,17.36
2023-05-09T07:33:39.354Z,17.46
2023-05-09T07:36:13.576Z,17.55
2023-05-09T07:38:50.436Z,17.62
2023-05-09T07:41:23.533Z,17.72
2023-05-09T07:43:56.331Z,17.72
2023-05-09T07:46:29.190Z,17.78
2023-05-09T07:49:02.137Z,17.73
2023-05-09T07:51:35.558Z,17.87
2023-05-09T07:54:10.175Z,17.97
2023-05-09T07:56:43.254Z,18.12
2023-05-09T07:59:16.972Z,18.32
2023-05-09T08:01:49.758Z,18.35
2023-05-09T08:04:22.576Z,18.75
2023-05-09T08:06:55.999Z,18.91
2023-05-09T08:09:30.331Z,18.86
2023-05-09T08:12:03.179Z,18.91
2023-05-09T08:14:36.101Z,19.15
2023-05-09T08:17:08.873Z,19.28
2023-05-09T08:19:41.736Z,19.52
2023-05-09T08:22:18.425Z,19.59
2023-05-09T08:24:52.622Z,19.73
2023-05-09T08:27:25.566Z,20.53
2023-05-09T08:29:58.440Z,20.79
2023-05-09T08:32:31.590Z,20.29
2023-05-09T08:35:04.943Z,20.01
2023-05-09T08:37:38.121Z,19.96
2023-05-09T08:40:13.080Z,20.25
2023-05-09T08:42:46.779Z,20.74
2023-05-09T08:45:26.626Z,20.59
2023-05-09T08:48:00.487Z,20.47
2023-05-09T08:50:35.473Z,20.62
2023-05-09T08:53:08.626Z,20.58
2023-05-09T08:55:43.198Z,20.45
2023-05-09T08:58:16.622Z,20.47
2023-05-09T09:00:51.200Z,20.78
2023-05-09T09:03:24.914Z,20.71
2023-05-09T09:05:59.442Z,20.92
2023-05-09T09:08:32.787Z,20.75
2023-05-09T09:11:07.682Z,20.87
2023-05-09T09:13:42.065Z,20.87
2023-05-09T09:16:24.841Z,21.01
2023-05-09T09:18:59.260Z,21.00
2023-05-09T09:21:33.134Z,21.31
2023-05-09T09:24:08.676Z,21.23
2023-05-09T09:26:48.032Z,20.73
2023-05-09T09:29:22.764Z,20.81
2023-05-09T09:31:55.822Z,21.09
2023-05-09T09:34:28.978Z,21.27
2023-05-09T09:37:01.780Z,21.43
2023-05-09T09:39:34.505Z,21.71
2023-05-09T09:42:15.383Z,22.03
2023-05-09T09:44:52.947Z,22.38
2023-05-09T09:47:32.938Z,22.06
2023-05-09T09:50:13.902Z,22.37
2023-05-09T09:52:51.388Z,22.35
2023-05-09T09:55:25.348Z,22.74
2023-05-09T09:58:00.190Z,22.92
2023-05-09T10:00:33.106Z,23.07
2023-05-09T10:03:06.076Z,22.76
2023-05-09T10:05:40.729Z,22.70
2023-05-09T10:08:13.617Z,22.93
2023-05-09T10:10:46.599Z,22.81
2023-05-09T10:13:21.794Z,22.56
2023-05-09T10:15:56.035Z,22.51
2023-05-09T10:18:30.644Z,22.83
2023-05-09T10:21:05.128Z,22.70
2023-05-09T10:23:38.982Z,22.84
2023-05-09T10:26:18.205Z,23.01
2023-05-09T10:28:56.064Z,23.21
2023-05-09T10:31:30.005Z,23.58
2023-05-09T10:34:06.692Z,23.71
2023-05-09T10:36:39.550Z,23.69
2023-05-09T10:39:12.455Z,23.91
2023-05-09T10:41:49.644Z,23.64
2023-05-09T10:44:24.416Z,24.07
2023-05-09T10:46:57.837Z,23.91
2023-05-09T10:49:31.750Z,24.07
2023-05-09T10:52:04.815Z,24.00
2023-05-09T10:54:38.215Z,24.05
2023-05-09T10:57:11.128Z,24.60
2023-05-09T10:59:46.411Z,24.72
2023-05-09T11:02:21.376Z,24.53
2023-05-09T11:05:14.950Z,24.69
2023-05-09T11:07:48.154Z,24.73
2023-05-09T11:10:21.003Z,24.96
2023-05-09T11:12:57.557Z,24.16
2023-05-09T11:15:33.063Z,24.37
2023-05-09T11:18:07.806Z,24.92
2023-05-09T11:20:45.121Z,24.69
2023-05-09T11:23:19.786Z,24.55
2023-05-09T11:25:53.607Z,24.98
2023-05-09T11:28:30.827Z,25.16
2023-05-09T11:31:15.338Z,25.05
2023-05-09T11:33:58.108Z,24.97
2023-05-09T11:36:33.403Z,24.72
2023-05-09T11:39:07.954Z,24.37
2023-05-09T11:41:41.674Z,24.21
2023-05-09T11:44:16.483Z,24.13
2023-05-09T11:46:50.920Z,24.12
2023-05-09T11:49:24.342Z,23.81
2023-05-09T11:52:00.615Z,23.78
2023-05-09T11:54:33.417Z,24.44
2023-05-09T11:57:06.544Z,24.58
2023-05-09T11:59:39.568Z,25.33
2023-05-09T12:02:14.146Z,24.63
2023-05-09T12:04:46.979Z,24.69
2023-05-09T12:07:20.538Z,24.93
2023-05-09T12:09:53.427Z,25.40
2023-05-09T12:12:26.278Z,24.94
2023-05-09T12:15:04.376Z,24.72
2023-05-09T12:17:38.677Z,24.03
2023-05-09T12:20:11.642Z,24.34
2023-05-09T12:22:44.989Z,25.21
2023-05-09T12:25:18.201Z,25.78
2023-05-09T12:27:54.384Z,25.42
2023-05-09T12:30:27.630Z,25.83
2023-05-09T12:33:02.046Z,25.66
2023-05-09T12:35:35.375Z,25.01
2023-05-09T12:38:08.651Z,25.08
2023-05-09T12:40:41.887Z,24.77
2023-05-09T12:43:14.897Z,24.63
2023-05-09T12:45:53.627Z,25.15
2023-05-09T12:48:27.983Z,25.46
2023-05-09T12:51:03.458Z,25.52
2023-05-09T12:53:39.781Z,26.03
2023-05-09T12:56:15.608Z,26.24
2023-05-09T12:58:52.664Z,26.32
2023-05-09T13:01:30.328Z,26.37
2023-05-09T13:04:06.354Z,26.80
2023-05-09T13:06:49.093Z,27.03
2023-05-09T13:09:22.544Z,27.01
2023-05-09T13:11:55.328Z,26.99
2023-05-09T13:14:28.376Z,26.90
2023-05-09T13:17:01.280Z,26.86
2023-05-09T13:19:39.345Z,26.99
2023-05-09T13:22:12.613Z,26.07
2023-05-09T13:24:45.684Z,25.64
2023-05-09T13:27:18.652Z,25.52
2023-05-09T13:29:51.445Z,25.62
2023-05-09T13:32:24.790Z,26.14
2023-05-09T13:34:59.081Z,26.35
2023-05-09T13:37:31.702Z,26.43
2023-05-09T13:40:05.365Z,25.54
2023-05-09T13:42:38.793Z,25.69
2023-05-09T13:45:12.588Z,25.58
2023-05-09T13:47:45.521Z,25.23
2023-05-09T13:50:19.667Z,25.45
2023-05-09T13:52:52.742Z,25.31
2023-05-09T13:55:26.848Z,25.02
2023-05-09T13:57:59.606Z,24.93
2023-05-09T14:00:32.475Z,25.49
2023-05-09T14:03:05.657Z,25.44
2023-05-09T14:05:39.813Z,25.21
2023-05-09T14:08:12.525Z,25.13
2023-05-09T14:10:45.438Z,25.09
2023-05-09T14:13:18.235Z,24.53
2023-05-09T14:15:51.195Z,24.65
2023-05-09T14:18:24.014Z,24.91
2023-05-09T14:20:58.650Z,24.24
2023-05-09T14:23:31.316Z,22.37
2023-05-09T14:26:04.185Z,22.60
2023-05-09T14:28:37.341Z,22.35
2023-05-09T14:31:10.130Z,22.03
2023-05-09T14:33:42.946Z,21.29
2023-05-09T14:36:17.453Z,21.32
2023-05-09T14:38:50.219Z,21.40
2023-05-09T14:41:23.257Z,21.13
2023-05-09T14:43:56.053Z,21.66
2023-05-09T14:46:28.895Z,21.27
2023-05-09T14:49:04.128Z,21.70
2023-05-09T14:51:38.406Z,20.99
2023-05-09T14:54:10.995Z,20.90
2023-05-09T14:56:43.860Z,21.45
2023-05-09T14:59:16.784Z,21.14
2023-05-09T15:01:50.855Z,21.33
2023-05-09T15:04:25.351Z,20.85
2023-05-09T15:06:59.649Z,20.46
2023-05-09T15:09:32.260Z,20.05
2023-05-09T15:12:05.483Z,19.74
2023-05-09T15:14:39.407Z,20.25
2023-05-09T15:17:12.286Z,19.93
2023-05-09T15:19:45.154Z,19.46
2023-05-09T15:22:19.299Z,19.82
2023-05-09T15:24:52.086Z,19.72
2023-05-09T15:27:24.875Z,19.79
2023-05-09T15:29:57.717Z,19.81
2023-05-09T15:32:30.622Z,19.79
2023-05-09T15:35:03.458Z,18.99
2023-05-09T15:37:38.319Z,19.80
2023-05-09T15:40:11.965Z,19.81
2023-05-09T15:42:45.186Z,19.18
2023-05-09T15:45:18.147Z,19.63
2023-05-09T15:47:51.170Z,19.65
2023-05-09T15:50:24.011Z,19.48
2023-05-09T15:52:58.128Z,19.06
2023-05-09T15:55:33.133Z,18.58
2023-05-09T15:58:05.970Z,19.26
2023-05-09T16:00:39.674Z,19.47
2023-05-09T16:03:13.076Z,19.30
2023-05-09T16:05:46.339Z,19.63
2023-05-09T16:08:21.021Z,19.17
2023-05-09T16:11:14.991Z,19.30
2023-05-09T16:13:47.825Z,19.17
2023-05-09T16:16:20.708Z,18.95
2023-05-09T16:18:53.690Z,18.95
2023-05-09T16:21:29.095Z,18.76
2023-05-09T16:24:04.710Z,19.13
2023-05-09T16:26:37.627Z,18.98
2023-05-09T16:29:12.585Z,19.08
2023-05-09T16:31:45.791Z,18.80
2023-05-09T16:34:18.900Z,18.17
2023-05-09T16:36:52.221Z,18.10
2023-05-09T16:39:27.878Z,18.39
2023-05-09T16:42:01.090Z,18.09
2023-05-09T16:44:34.513Z,18.36
2023-05-09T16:47:07.500Z,18.15
2023-05-09T16:49:41.004Z,17.85
2023-05-09T16:52:13.861Z,17.99
2023-05-09T16:54:49.063Z,17.86
2023-05-09T16:57:22.346Z,17.92
2023-05-09T16:59:55.579Z,17.83
2023-05-09T17:02:28.534Z,17.97
2023-05-09T17:05:01.322Z,17.86
2023-05-09T17:07:34.214Z,17.69
2023-05-09T17:10:09.678Z,18.14
2023-05-09T17:12:42.886Z,17.68
2023-05-09T17:15:15.790Z,17.98
2023-05-09T17:17:49.032Z,18.03
2023-05-09T17:20:21.872Z,17.85
2023-05-09T17:22:54.815Z,18.05
2023-05-09T17:25:29.370Z,18.08
2023-05-09T17:28:02.067Z,17.83
2023-05-09T17:30:34.866Z,17.68
2023-05-09T17:33:08.194Z,17.77
2023-05-09T17:35:41.289Z,18.05
2023-05-09T17:38:14.424Z,17.90
2023-05-09T17:40:49.031Z,17.58
2023-05-09T17:43:23.979Z,17.83
2023-05-09T17:45:57.362Z,17.74
2023-05-09T17:48:32.325Z,17.89
2023-05-09T17:51:05.797Z,17.20
2023-05-09T17:53:38.595Z,17.39
2023-05-09T17:56:12.957Z,17.59
2023-05-09T17:58:47.058Z,17.93
2023-05-09T18:01:21.674Z,17.79
2023-05-09T18:03:54.921Z,17.55
2023-05-09T18:06:29.197Z,17.34
2023-05-09T18:09:02.788Z,17.51
2023-05-09T18:11:37.551Z,17.60
2023-05-09T18:14:10.852Z,17.82
2023-05-09T18:16:43.664Z,17.85
2023-05-09T18:19:16.566Z,17.59
2023-05-09T18:21:49.417Z,17.44
2023-05-09T18:24:23.156Z,17.61
2023-05-09T18:26:57.946Z,17.71
2023-05-09T18:29:30.919Z,17.70
2023-05-09T18:32:03.754Z,17.14
2023-05-09T18:34:36.739Z,17.08
2023-05-09T18:37:10.222Z,17.35
2023-05-09T18:39:43.103Z,17.31
2023-05-09T18:42:17.285Z,17.41
2023-05-09T18:44:50.460Z,17.24
2023-05-09T18:47:24.829Z,17.36
2023-05-09T18:49:58.214Z,17.30
2023-05-09T18:52:32.673Z,16.98
2023-05-09T18:55:06.805Z,17.20
2023-05-09T18:57:41.462Z,16.75
2023-05-09T19:00:15.237Z,17.17
2023-05-09T19:02:48.366Z,17.23
2023-05-09T19:05:22.505Z,17.21
2023-05-09T19:07:58.084Z,16.88
2023-05-09T19:10:30.896Z,17.00
2023-05-09T19:13:05.953Z,16.88
2023-05-09T19:15:39.066Z,16.97
2023-05-09T19:18:12.120Z,17.10
2023-05-09T19:20:44.997Z,17.09
2023-05-09T19:23:18.194Z,17.11
2023-05-09T19:25:53.748Z,17.05
2023-05-09T19:28:28.453Z,16.90
2023-05-09T19:31:01.313Z,16.69
2023-05-09T19:33:34.725Z,16.55
2023-05-09T19:36:07.957Z,16.07
2023-05-09T19:38:41.018Z,16.22
2023-05-09T19:41:14.836Z,16.58
2023-05-09T19:43:51.130Z,16.28
2023-05-09T19:46:24.025Z,16.37
2023-05-09T19:48:56.935Z,16.54
2023-05-09T19:51:29.879Z,16.63
2023-05-09T19:54:03.407Z,16.73
2023-05-09T19:56:36.190Z,16.63
2023-05-09T19:59:10.303Z,16.43
2023-05-09T20:01:43.218Z,16.33
2023-05-09T20:04:16.395Z,16.32
2023-05-09T20:06:49.253Z,16.45
2023-05-09T20:09:22.044Z,16.29
2023-05-09T20:11:54.853Z,16.25
2023-05-09T20:14:29.075Z,16.11
2023-05-09T20:17:02.422Z,15.94
2023-05-09T20:19:35.507Z,15.97
2023-05-09T20:22:08.943Z,15.95
2023-05-09T20:24:42.145Z,15.99
2023-05-09T20:27:15.036Z,16.18
2023-05-09T20:29:49.182Z,16.26
2023-05-09T20:32:22.350Z,15.94
2023-05-09T20:34:55.293Z,15.92
2023-05-09T20:37:28.151Z,15.93
2023-05-09T20:40:02.380Z,16.09
2023-05-09T20:42:35.602Z,16.05
2023-05-09T20:45:11.215Z,15.92
2023-05-09T20:47:44.103Z,15.78
2023-05-09T20:50:17.999Z,15.73
2023-05-09T20:52:51.084Z,15.61
2023-05-09T20:55:24.069Z,15.69
2023-05-09T20:57:56.902Z,15.88
2023-05-09T21:00:31.283Z,15.83
2023-05-09T21:03:04.426Z,15.71
2023-05-09T21:05:37.320Z,15.49
2023-05-09T21:08:10.278Z,15.07
2023-05-09T21:10:43.153Z,15.07
2023-05-09T21:13:16.078Z,15.34
2023-05-09T21:15:51.080Z,15.12
2023-05-09T21:18:23.932Z,15.30
2023-05-09T21:20:56.872Z,15.37
2023-05-09T21:23:29.780Z,15.21
2023-05-09T21:26:03.313Z,15.43
2023-05-09T21:28:36.141Z,15.35
2023-05-09T21:31:11.464Z,15.27
2023-05-09T21:33:44.535Z,15.12
2023-05-09T21:36:17.351Z,15.09
2023-05-09T21:38:50.158Z,14.96
2023-05-09T21:41:22.984Z,15.01
2023-05-09T21:43:55.991Z,15.15
2023-05-09T21:46:32.448Z,15.29
2023-05-09T21:49:05.294Z,15.18
2023-05-09T21:51:38.110Z,15.15
2023-05-09T21:54:11.713Z,15.03
2023-05-09T21:56:44.601Z,15.24
2023-05-09T21:59:20.680Z,15.16
2023-05-09T22:01:55.018Z,15.26
2023-05-09T22:04:27.843Z,15.29
2023-05-09T22:07:00.643Z,15.15
2023-05-09T22:09:33.452Z,15.23
2023-05-09T22:12:06.624Z,14.94
2023-05-09T22:14:52.720Z,14.75
2023-05-09T22:17:30.287Z,14.96
2023-05-09T22:20:03.113Z,14.85
2023-05-09T22:22:36.090Z,14.84
2023-05-09T22:25:09.640Z,14.69
2023-05-09T22:27:42.779Z,14.78
2023-05-09T22:30:16.111Z,14.62
2023-05-09T22:32:50.825Z,14.73
2023-05-09T22:35:23.931Z,14.70
2023-05-09T22:37:56.819Z,14.48
2023-05-09T22:40:30.888Z,14.52
2023-05-09T22:43:03.874Z,14.52
2023-05-09T22:45:37.032Z,14.55
2023-05-09T22:48:11.244Z,14.55
2023-05-09T22:50:44.222Z,14.56
2023-05-09T22:53:17.566Z,14.51
2023-05-09T22:55:52.438Z,14.19
2023-05-09T22:58:26.319Z,14.42
2023-05-09T23:00:59.194Z,14.55
2023-05-09T23:03:33.343Z,14.59
2023-05-09T23:06:06.292Z,14.39
2023-05-09T23:08:39.090Z,14.46
2023-05-09T23:11:12.334Z,14.60
2023-05-09T23:13:45.122Z,14.65
2023-05-09T23:16:17.967Z,14.51
2023-05-09T23:18:52.180Z,14.48
2023-05-09T23:21:25.111Z,14.49
2023-05-09T23:23:58.012Z,14.42
2023-05-09T23:26:30.769Z,14.30
2023-05-09T23:29:03.561Z,14.18
2023-05-09T23:31:36.505Z,14.25
2023-05-09T23:34:10.729Z,14.27
2023-05-09T23:36:43.694Z,14.31
2023-05-09T23:39:16.971Z,14.29
2023-05-09T23:41:49.742Z,14.42
2023-05-09T23:44:22.539Z,14.40
2023-05-09T23:46:55.432Z,14.33
2023-05-09T23:49:29.614Z,14.38
2023-05-09T23:52:02.385Z,14.36
2023-05-09T23:54:35.248Z,14.42
2023-05-09T23:57:08.176Z,14.26
2023-05-09T23:59:42.543Z,14.15
